sensor_id;sensor_type;location;lat;lon;timestamp;temperature;humidity
10802;DHT22;5453;50.852;7.102;2022-12-17T00:01:48;-0.40;99.90
10802;DHT22;5453;50.852;7.102;2022-12-17T00:04:39;-0.50;99.90
10802;DHT22;5453;50.852;7.102;2022-12-17T00:07:29;-0.50;99.90
10802;DHT22;5453;50.852;7.102;2022-12-17T00:10:19;-0.50;99.90
10802;DHT22;5453;50.852;7.102;2022-12-17T00:13:16;-0.50;99.90
10802;DHT22;5453;50.852;7.102;2022-12-17T00:16:07;-0.50;99.90
10802;DHT22;5453;50.852;7.102;2022-12-17T00:18:56;-0.50;99.90
10802;DHT22;5453;50.852;7.102;2022-12-17T00:21:47;-0.50;99.90
10802;DHT22;5453;50.852;7.102;2022-12-17T00:24:37;-0.60;99.90
10802;DHT22;5453;50.852;7.102;2022-12-17T00:27:27;-0.60;99.90
10802;DHT22;5453;50.852;7.102;2022-12-17T00:30:16;-0.60;99.90
10802;DHT22;5453;50.852;7.102;2022-12-17T00:33:07;-0.70;99.90
10802;DHT22;5453;50.852;7.102;2022-12-17T00:35:57;-0.70;99.90
10802;DHT22;5453;50.852;7.102;2022-12-17T00:38:48;-0.70;99.90
10802;DHT22;5453;50.852;7.102;2022-12-17T00:41:37;-0.70;99.90
10802;DHT22;5453;50.852;7.102;2022-12-17T00:44:27;-0.80;99.90
10802;DHT22;5453;50.852;7.102;2022-12-17T00:47:16;-0.70;99.90
10802;DHT22;5453;50.852;7.102;2022-12-17T00:50:07;-0.70;99.90
10802;DHT22;5453;50.852;7.102;2022-12-17T00:52:57;-0.70;99.90
10802;DHT22;5453;50.852;7.102;2022-12-17T00:55:48;-0.70;99.90
10802;DHT22;5453;50.852;7.102;2022-12-17T00:58:38;-0.70;99.90
10802;DHT22;5453;50.852;7.102;2022-12-17T01:01:28;-0.70;99.90
10802;DHT22;5453;50.852;7.102;2022-12-17T01:04:18;-0.70;99.90
10802;DHT22;5453;50.852;7.102;2022-12-17T01:07:09;-0.70;99.90
10802;DHT22;5453;50.852;7.102;2022-12-17T01:09:59;-0.70;99.90
10802;DHT22;5453;50.852;7.102;2022-12-17T01:12:50;-0.70;99.90
10802;DHT22;5453;50.852;7.102;2022-12-17T01:15:40;-0.80;99.90
10802;DHT22;5453;50.852;7.102;2022-12-17T01:18:30;-0.80;99.90
10802;DHT22;5453;50.852;7.102;2022-12-17T01:21:19;-0.90;99.90
10802;DHT22;5453;50.852;7.102;2022-12-17T01:24:18;-0.90;99.90
10802;DHT22;5453;50.852;7.102;2022-12-17T01:27:10;-0.90;99.90
10802;DHT22;5453;50.852;7.102;2022-12-17T01:30:00;-0.80;99.90
10802;DHT22;5453;50.852;7.102;2022-12-17T01:32:50;-0.80;99.90
10802;DHT22;5453;50.852;7.102;2022-12-17T01:35:40;-0.80;99.90
10802;DHT22;5453;50.852;7.102;2022-12-17T01:38:31;-0.80;99.90
10802;DHT22;5453;50.852;7.102;2022-12-17T01:41:21;-0.80;99.90
10802;DHT22;5453;50.852;7.102;2022-12-17T01:44:47;-0.80;99.90
10802;DHT22;5453;50.852;7.102;2022-12-17T01:47:43;-0.80;99.90
10802;DHT22;5453;50.852;7.102;2022-12-17T01:50:36;-0.90;99.90
10802;DHT22;5453;50.852;7.102;2022-12-17T01:53:31;-1.00;99.90
10802;DHT22;5453;50.852;7.102;2022-12-17T01:56:25;-1.00;99.90
10802;DHT22;5453;50.852;7.102;2022-12-17T01:59:17;-1.00;99.90
10802;DHT22;5453;50.852;7.102;2022-12-17T02:02:10;-1.00;99.90
10802;DHT22;5453;50.852;7.102;2022-12-17T02:05:02;-1.00;99.90
10802;DHT22;5453;50.852;7.102;2022-12-17T02:08:01;-1.00;99.90
10802;DHT22;5453;50.852;7.102;2022-12-17T02:10:58;-1.10;99.90
10802;DHT22;5453;50.852;7.102;2022-12-17T02:14:02;-1.10;99.90
10802;DHT22;5453;50.852;7.102;2022-12-17T02:17:05;-1.10;99.90
10802;DHT22;5453;50.852;7.102;2022-12-17T02:20:07;-1.10;99.90
10802;DHT22;5453;50.852;7.102;2022-12-17T02:23:17;-1.10;99.90
10802;DHT22;5453;50.852;7.102;2022-12-17T02:26:31;-1.10;99.90
10802;DHT22;5453;50.852;7.102;2022-12-17T02:29:26;-1.00;99.90
10802;DHT22;5453;50.852;7.102;2022-12-17T02:32:19;-1.00;99.90
10802;DHT22;5453;50.852;7.102;2022-12-17T02:35:15;-1.00;99.90
10802;DHT22;5453;50.852;7.102;2022-12-17T02:38:16;-1.00;99.90
10802;DHT22;5453;50.852;7.102;2022-12-17T02:41:12;-1.00;99.90
10802;DHT22;5453;50.852;7.102;2022-12-17T02:44:05;-1.00;99.90
10802;DHT22;5453;50.852;7.102;2022-12-17T02:46:58;-1.00;99.90
10802;DHT22;5453;50.852;7.102;2022-12-17T02:49:58;-1.00;99.90
10802;DHT22;5453;50.852;7.102;2022-12-17T02:52:49;-1.00;99.90
10802;DHT22;5453;50.852;7.102;2022-12-17T02:55:38;-1.00;99.90
10802;DHT22;5453;50.852;7.102;2022-12-17T02:58:24;-1.10;99.90
10802;DHT22;5453;50.852;7.102;2022-12-17T03:01:15;-1.10;99.90
10802;DHT22;5453;50.852;7.102;2022-12-17T03:04:07;-1.20;99.90
10802;DHT22;5453;50.852;7.102;2022-12-17T03:06:57;-1.20;99.90
10802;DHT22;5453;50.852;7.102;2022-12-17T03:09:47;-1.30;99.90
10802;DHT22;5453;50.852;7.102;2022-12-17T03:12:38;-1.30;99.90
10802;DHT22;5453;50.852;7.102;2022-12-17T03:15:27;-1.30;99.90
10802;DHT22;5453;50.852;7.102;2022-12-17T03:18:20;-1.30;99.90
10802;DHT22;5453;50.852;7.102;2022-12-17T03:21:10;-1.30;99.90
10802;DHT22;5453;50.852;7.102;2022-12-17T03:24:03;-1.30;99.90
10802;DHT22;5453;50.852;7.102;2022-12-17T03:26:52;-1.30;99.90
10802;DHT22;5453;50.852;7.102;2022-12-17T03:29:42;-1.30;99.90
10802;DHT22;5453;50.852;7.102;2022-12-17T03:32:32;-1.40;99.90
10802;DHT22;5453;50.852;7.102;2022-12-17T03:35:24;-1.40;99.90
10802;DHT22;5453;50.852;7.102;2022-12-17T03:38:14;-1.50;99.90
10802;DHT22;5453;50.852;7.102;2022-12-17T03:41:04;-1.60;99.90
10802;DHT22;5453;50.852;7.102;2022-12-17T03:43:54;-1.70;99.90
10802;DHT22;5453;50.852;7.102;2022-12-17T03:46:43;-1.70;99.90
10802;DHT22;5453;50.852;7.102;2022-12-17T03:49:33;-1.80;99.90
10802;DHT22;5453;50.852;7.102;2022-12-17T03:52:24;-1.80;99.90
10802;DHT22;5453;50.852;7.102;2022-12-17T03:55:14;-1.80;99.90
10802;DHT22;5453;50.852;7.102;2022-12-17T03:58:04;-1.90;99.90
10802;DHT22;5453;50.852;7.102;2022-12-17T04:00:54;-2.00;99.90
10802;DHT22;5453;50.852;7.102;2022-12-17T04:03:44;-2.00;99.90
10802;DHT22;5453;50.852;7.102;2022-12-17T04:06:35;-2.00;99.90
10802;DHT22;5453;50.852;7.102;2022-12-17T04:09:26;-2.10;99.90
10802;DHT22;5453;50.852;7.102;2022-12-17T04:12:15;-2.20;99.90
10802;DHT22;5453;50.852;7.102;2022-12-17T04:15:06;-2.30;99.90
10802;DHT22;5453;50.852;7.102;2022-12-17T04:17:57;-2.30;99.90
10802;DHT22;5453;50.852;7.102;2022-12-17T04:20:47;-2.40;99.90
10802;DHT22;5453;50.852;7.102;2022-12-17T04:23:37;-2.30;99.90
10802;DHT22;5453;50.852;7.102;2022-12-17T04:26:27;-2.30;99.90
10802;DHT22;5453;50.852;7.102;2022-12-17T04:29:18;-2.30;99.90
10802;DHT22;5453;50.852;7.102;2022-12-17T04:32:07;-2.30;99.90
10802;DHT22;5453;50.852;7.102;2022-12-17T04:35:06;-2.30;99.90
10802;DHT22;5453;50.852;7.102;2022-12-17T04:37:56;-2.40;99.90
10802;DHT22;5453;50.852;7.102;2022-12-17T04:40:45;-2.40;99.90
10802;DHT22;5453;50.852;7.102;2022-12-17T04:43:42;-2.40;99.90
10802;DHT22;5453;50.852;7.102;2022-12-17T04:46:39;-2.40;99.90
10802;DHT22;5453;50.852;7.102;2022-12-17T04:49:30;-2.40;99.90
10802;DHT22;5453;50.852;7.102;2022-12-17T04:52:19;-2.30;99.90
10802;DHT22;5453;50.852;7.102;2022-12-17T04:55:09;-2.20;99.90
10802;DHT22;5453;50.852;7.102;2022-12-17T04:58:01;-2.20;99.90
10802;DHT22;5453;50.852;7.102;2022-12-17T05:00:53;-2.20;99.90
10802;DHT22;5453;50.852;7.102;2022-12-17T05:03:43;-2.20;99.90
10802;DHT22;5453;50.852;7.102;2022-12-17T05:06:47;-2.20;99.90
10802;DHT22;5453;50.852;7.102;2022-12-17T05:09:37;-2.20;99.90
10802;DHT22;5453;50.852;7.102;2022-12-17T05:12:26;-2.20;99.90
10802;DHT22;5453;50.852;7.102;2022-12-17T05:15:16;-2.20;99.90
10802;DHT22;5453;50.852;7.102;2022-12-17T05:18:07;-2.20;99.90
10802;DHT22;5453;50.852;7.102;2022-12-17T05:20:57;-2.30;99.90
10802;DHT22;5453;50.852;7.102;2022-12-17T05:23:46;-2.30;99.90
10802;DHT22;5453;50.852;7.102;2022-12-17T05:26:36;-2.30;99.90
10802;DHT22;5453;50.852;7.102;2022-12-17T05:29:26;-2.40;99.90
10802;DHT22;5453;50.852;7.102;2022-12-17T05:32:15;-2.50;99.90
10802;DHT22;5453;50.852;7.102;2022-12-17T05:35:06;-2.60;99.90
10802;DHT22;5453;50.852;7.102;2022-12-17T05:38:02;-2.70;99.90
10802;DHT22;5453;50.852;7.102;2022-12-17T05:40:55;-2.70;99.90
10802;DHT22;5453;50.852;7.102;2022-12-17T05:43:46;-2.80;99.90
10802;DHT22;5453;50.852;7.102;2022-12-17T05:46:36;-2.90;99.90
10802;DHT22;5453;50.852;7.102;2022-12-17T05:49:25;-2.90;99.90
10802;DHT22;5453;50.852;7.102;2022-12-17T05:52:16;-2.90;99.90
10802;DHT22;5453;50.852;7.102;2022-12-17T05:55:07;-2.90;99.90
10802;DHT22;5453;50.852;7.102;2022-12-17T05:58:01;-2.90;99.90
10802;DHT22;5453;50.852;7.102;2022-12-17T06:00:55;-2.80;99.90
10802;DHT22;5453;50.852;7.102;2022-12-17T06:03:46;-2.80;99.90
10802;DHT22;5453;50.852;7.102;2022-12-17T06:06:35;-2.80;99.90
10802;DHT22;5453;50.852;7.102;2022-12-17T06:09:26;-2.80;99.90
10802;DHT22;5453;50.852;7.102;2022-12-17T06:12:16;-2.80;99.90
10802;DHT22;5453;50.852;7.102;2022-12-17T06:15:06;-2.70;99.90
10802;DHT22;5453;50.852;7.102;2022-12-17T06:18:05;-2.70;99.90
10802;DHT22;5453;50.852;7.102;2022-12-17T06:20:56;-2.70;99.90
10802;DHT22;5453;50.852;7.102;2022-12-17T06:23:51;-2.70;99.90
10802;DHT22;5453;50.852;7.102;2022-12-17T06:26:42;-2.70;99.90
10802;DHT22;5453;50.852;7.102;2022-12-17T06:29:31;-2.60;99.90
10802;DHT22;5453;50.852;7.102;2022-12-17T06:32:21;-2.60;99.90
10802;DHT22;5453;50.852;7.102;2022-12-17T06:35:11;-2.70;99.90
10802;DHT22;5453;50.852;7.102;2022-12-17T06:38:04;-2.70;99.90
10802;DHT22;5453;50.852;7.102;2022-12-17T06:40:54;-2.70;99.90
10802;DHT22;5453;50.852;7.102;2022-12-17T06:43:45;-2.80;99.90
10802;DHT22;5453;50.852;7.102;2022-12-17T06:46:35;-2.70;99.90
10802;DHT22;5453;50.852;7.102;2022-12-17T06:49:24;-2.70;99.90
10802;DHT22;5453;50.852;7.102;2022-12-17T06:52:14;-2.70;99.90
10802;DHT22;5453;50.852;7.102;2022-12-17T06:55:04;-2.70;99.90
10802;DHT22;5453;50.852;7.102;2022-12-17T06:57:55;-2.70;99.90
10802;DHT22;5453;50.852;7.102;2022-12-17T07:00:43;-2.60;99.90
10802;DHT22;5453;50.852;7.102;2022-12-17T07:03:38;-2.60;99.90
10802;DHT22;5453;50.852;7.102;2022-12-17T07:06:28;-2.60;99.90
10802;DHT22;5453;50.852;7.102;2022-12-17T07:09:17;-2.50;99.90
10802;DHT22;5453;50.852;7.102;2022-12-17T07:12:07;-2.50;99.90
10802;DHT22;5453;50.852;7.102;2022-12-17T07:14:56;-2.50;99.90
10802;DHT22;5453;50.852;7.102;2022-12-17T07:17:55;-2.40;99.90
10802;DHT22;5453;50.852;7.102;2022-12-17T07:20:44;-2.40;99.90
10802;DHT22;5453;50.852;7.102;2022-12-17T07:23:34;-2.30;99.90
10802;DHT22;5453;50.852;7.102;2022-12-17T07:26:24;-2.30;99.90
10802;DHT22;5453;50.852;7.102;2022-12-17T07:29:14;-2.30;99.90
10802;DHT22;5453;50.852;7.102;2022-12-17T07:32:00;-2.20;99.90
10802;DHT22;5453;50.852;7.102;2022-12-17T07:34:51;-2.20;99.90
10802;DHT22;5453;50.852;7.102;2022-12-17T07:37:43;-2.10;99.90
10802;DHT22;5453;50.852;7.102;2022-12-17T07:40:32;-2.00;99.90
10802;DHT22;5453;50.852;7.102;2022-12-17T07:43:22;-2.00;99.90
10802;DHT22;5453;50.852;7.102;2022-12-17T07:46:11;-2.00;99.90
10802;DHT22;5453;50.852;7.102;2022-12-17T07:49:01;-1.40;99.90
10802;DHT22;5453;50.852;7.102;2022-12-17T07:51:51;-1.50;99.90
10802;DHT22;5453;50.852;7.102;2022-12-17T07:54:41;-1.70;99.90
10802;DHT22;5453;50.852;7.102;2022-12-17T07:57:32;-1.80;99.90
10802;DHT22;5453;50.852;7.102;2022-12-17T08:00:21;-2.00;99.90
10802;DHT22;5453;50.852;7.102;2022-12-17T08:03:11;-2.10;99.90
10802;DHT22;5453;50.852;7.102;2022-12-17T08:06:00;-2.10;99.90
10802;DHT22;5453;50.852;7.102;2022-12-17T08:08:51;-2.20;99.90
10802;DHT22;5453;50.852;7.102;2022-12-17T08:11:41;-2.30;99.90
10802;DHT22;5453;50.852;7.102;2022-12-17T08:14:31;-2.40;99.90
10802;DHT22;5453;50.852;7.102;2022-12-17T08:17:20;-2.40;99.90
10802;DHT22;5453;50.852;7.102;2022-12-17T08:20:10;-2.50;99.90
10802;DHT22;5453;50.852;7.102;2022-12-17T08:23:01;-2.50;99.90
10802;DHT22;5453;50.852;7.102;2022-12-17T08:25:51;-2.60;99.90
10802;DHT22;5453;50.852;7.102;2022-12-17T08:28:41;-2.70;99.90
10802;DHT22;5453;50.852;7.102;2022-12-17T08:31:31;-2.70;99.90
10802;DHT22;5453;50.852;7.102;2022-12-17T08:34:20;-2.20;99.90
10802;DHT22;5453;50.852;7.102;2022-12-17T08:37:10;-2.20;99.90
10802;DHT22;5453;50.852;7.102;2022-12-17T08:39:59;-2.30;99.90
10802;DHT22;5453;50.852;7.102;2022-12-17T08:42:56;-2.30;99.90
10802;DHT22;5453;50.852;7.102;2022-12-17T08:45:47;-2.30;99.90
10802;DHT22;5453;50.852;7.102;2022-12-17T08:48:37;-2.40;99.90
10802;DHT22;5453;50.852;7.102;2022-12-17T08:51:26;-2.30;99.90
10802;DHT22;5453;50.852;7.102;2022-12-17T08:54:24;-2.30;99.90
10802;DHT22;5453;50.852;7.102;2022-12-17T08:57:14;-2.30;99.90
10802;DHT22;5453;50.852;7.102;2022-12-17T09:00:06;-2.30;99.90
10802;DHT22;5453;50.852;7.102;2022-12-17T09:02:57;-2.40;99.90
10802;DHT22;5453;50.852;7.102;2022-12-17T09:05:47;-2.40;99.90
10802;DHT22;5453;50.852;7.102;2022-12-17T09:08:36;-2.40;99.90
10802;DHT22;5453;50.852;7.102;2022-12-17T09:11:26;-2.50;99.90
10802;DHT22;5453;50.852;7.102;2022-12-17T09:14:15;-2.40;99.90
10802;DHT22;5453;50.852;7.102;2022-12-17T09:17:06;-2.40;99.90
10802;DHT22;5453;50.852;7.102;2022-12-17T09:19:56;-2.40;99.90
10802;DHT22;5453;50.852;7.102;2022-12-17T09:22:45;-2.50;99.90
10802;DHT22;5453;50.852;7.102;2022-12-17T09:25:35;-2.50;99.90
10802;DHT22;5453;50.852;7.102;2022-12-17T09:28:24;-2.60;99.90
10802;DHT22;5453;50.852;7.102;2022-12-17T09:31:14;-2.70;99.90
10802;DHT22;5453;50.852;7.102;2022-12-17T09:34:07;-2.80;99.90
10802;DHT22;5453;50.852;7.102;2022-12-17T09:36:57;-2.80;99.90
10802;DHT22;5453;50.852;7.102;2022-12-17T09:39:46;-2.70;99.90
10802;DHT22;5453;50.852;7.102;2022-12-17T09:42:40;-2.70;99.90
10802;DHT22;5453;50.852;7.102;2022-12-17T09:45:36;-2.70;99.90
10802;DHT22;5453;50.852;7.102;2022-12-17T09:48:34;-2.80;99.90
10802;DHT22;5453;50.852;7.102;2022-12-17T09:51:28;-2.70;99.90
10802;DHT22;5453;50.852;7.102;2022-12-17T09:54:21;-2.70;99.90
10802;DHT22;5453;50.852;7.102;2022-12-17T09:57:20;-2.70;99.90
10802;DHT22;5453;50.852;7.102;2022-12-17T10:00:15;-2.60;99.90
10802;DHT22;5453;50.852;7.102;2022-12-17T10:03:10;-2.60;99.90
10802;DHT22;5453;50.852;7.102;2022-12-17T10:06:05;-2.60;99.90
10802;DHT22;5453;50.852;7.102;2022-12-17T10:09:00;-2.50;99.90
10802;DHT22;5453;50.852;7.102;2022-12-17T10:11:51;-2.50;99.90
10802;DHT22;5453;50.852;7.102;2022-12-17T10:14:40;-2.40;99.90
10802;DHT22;5453;50.852;7.102;2022-12-17T10:17:30;-2.30;99.90
10802;DHT22;5453;50.852;7.102;2022-12-17T10:20:22;-2.20;99.90
10802;DHT22;5453;50.852;7.102;2022-12-17T10:23:22;-2.10;99.90
10802;DHT22;5453;50.852;7.102;2022-12-17T10:26:18;-2.10;99.90
10802;DHT22;5453;50.852;7.102;2022-12-17T10:29:11;-2.00;99.90
10802;DHT22;5453;50.852;7.102;2022-12-17T10:32:09;-1.80;99.90
10802;DHT22;5453;50.852;7.102;2022-12-17T10:35:05;-0.20;99.90
10802;DHT22;5453;50.852;7.102;2022-12-17T10:37:55;-0.20;99.90
10802;DHT22;5453;50.852;7.102;2022-12-17T10:40:45;-0.30;99.90
10802;DHT22;5453;50.852;7.102;2022-12-17T10:43:39;-0.60;99.90
10802;DHT22;5453;50.852;7.102;2022-12-17T10:46:30;-0.80;99.90
10802;DHT22;5453;50.852;7.102;2022-12-17T10:49:22;-0.80;99.90
10802;DHT22;5453;50.852;7.102;2022-12-17T10:52:21;-0.90;99.90
10802;DHT22;5453;50.852;7.102;2022-12-17T10:55:21;-1.00;99.90
10802;DHT22;5453;50.852;7.102;2022-12-17T10:58:13;-1.00;99.90
10802;DHT22;5453;50.852;7.102;2022-12-17T11:01:17;-1.10;99.90
10802;DHT22;5453;50.852;7.102;2022-12-17T11:04:24;-1.20;99.90
10802;DHT22;5453;50.852;7.102;2022-12-17T11:07:18;-0.30;99.90
10802;DHT22;5453;50.852;7.102;2022-12-17T11:10:12;-0.20;99.90
10802;DHT22;5453;50.852;7.102;2022-12-17T11:13:07;-0.20;99.90
10802;DHT22;5453;50.852;7.102;2022-12-17T11:15:57;-0.30;99.90
10802;DHT22;5453;50.852;7.102;2022-12-17T11:18:54;-0.40;99.90
10802;DHT22;5453;50.852;7.102;2022-12-17T11:22:02;-0.40;99.90
10802;DHT22;5453;50.852;7.102;2022-12-17T11:24:59;-0.40;99.90
10802;DHT22;5453;50.852;7.102;2022-12-17T11:27:57;-0.30;99.90
10802;DHT22;5453;50.852;7.102;2022-12-17T11:31:01;-0.40;99.90
10802;DHT22;5453;50.852;7.102;2022-12-17T11:34:00;-0.40;99.90
10802;DHT22;5453;50.852;7.102;2022-12-17T11:36:58;-0.20;99.90
10802;DHT22;5453;50.852;7.102;2022-12-17T11:39:59;-0.10;99.90
10802;DHT22;5453;50.852;7.102;2022-12-17T11:42:52;-0.10;99.90
10802;DHT22;5453;50.852;7.102;2022-12-17T11:45:54;-0.10;99.90
10802;DHT22;5453;50.852;7.102;2022-12-17T11:48:53;-0.10;99.90
10802;DHT22;5453;50.852;7.102;2022-12-17T11:51:50;0.00;99.90
10802;DHT22;5453;50.852;7.102;2022-12-17T11:54:50;0.10;99.90
10802;DHT22;5453;50.852;7.102;2022-12-17T11:57:49;0.00;99.90
10802;DHT22;5453;50.852;7.102;2022-12-17T12:00:48;0.00;99.90
10802;DHT22;5453;50.852;7.102;2022-12-17T12:03:53;0.00;99.90
10802;DHT22;5453;50.852;7.102;2022-12-17T12:06:59;0.00;99.90
10802;DHT22;5453;50.852;7.102;2022-12-17T12:09:56;-0.10;99.90
10802;DHT22;5453;50.852;7.102;2022-12-17T12:12:57;-0.10;99.90
10802;DHT22;5453;50.852;7.102;2022-12-17T12:15:59;-0.10;99.90
10802;DHT22;5453;50.852;7.102;2022-12-17T12:19:16;0.00;99.90
10802;DHT22;5453;50.852;7.102;2022-12-17T12:22:14;0.00;99.90
10802;DHT22;5453;50.852;7.102;2022-12-17T12:25:19;0.10;99.90
10802;DHT22;5453;50.852;7.102;2022-12-17T12:28:21;0.10;99.90
10802;DHT22;5453;50.852;7.102;2022-12-17T12:31:22;0.10;99.90
10802;DHT22;5453;50.852;7.102;2022-12-17T12:34:18;0.20;99.90
10802;DHT22;5453;50.852;7.102;2022-12-17T12:37:13;0.10;99.90
10802;DHT22;5453;50.852;7.102;2022-12-17T12:40:06;0.20;99.90
10802;DHT22;5453;50.852;7.102;2022-12-17T12:43:04;0.20;99.90
10802;DHT22;5453;50.852;7.102;2022-12-17T12:46:03;0.30;99.90
10802;DHT22;5453;50.852;7.102;2022-12-17T12:49:02;0.40;99.90
10802;DHT22;5453;50.852;7.102;2022-12-17T12:51:58;0.40;99.90
10802;DHT22;5453;50.852;7.102;2022-12-17T12:54:53;0.50;99.90
10802;DHT22;5453;50.852;7.102;2022-12-17T12:57:55;0.50;99.90
10802;DHT22;5453;50.852;7.102;2022-12-17T13:00:53;0.60;99.90
10802;DHT22;5453;50.852;7.102;2022-12-17T13:03:56;0.60;99.90
10802;DHT22;5453;50.852;7.102;2022-12-17T13:06:48;0.60;99.90
10802;DHT22;5453;50.852;7.102;2022-12-17T13:09:35;0.60;99.90
10802;DHT22;5453;50.852;7.102;2022-12-17T13:12:27;0.60;99.90
10802;DHT22;5453;50.852;7.102;2022-12-17T13:15:20;0.60;99.90
10802;DHT22;5453;50.852;7.102;2022-12-17T13:17:58;0.60;99.90
10802;DHT22;5453;50.852;7.102;2022-12-17T13:20:36;0.60;99.90
10802;DHT22;5453;50.852;7.102;2022-12-17T13:23:23;0.50;99.90
10802;DHT22;5453;50.852;7.102;2022-12-17T13:26:20;0.60;99.90
10802;DHT22;5453;50.852;7.102;2022-12-17T13:29:02;0.50;99.90
10802;DHT22;5453;50.852;7.102;2022-12-17T13:31:51;0.50;99.90
10802;DHT22;5453;50.852;7.102;2022-12-17T13:34:40;0.80;99.90
10802;DHT22;5453;50.852;7.102;2022-12-17T13:37:28;1.70;99.90
10802;DHT22;5453;50.852;7.102;2022-12-17T13:40:18;1.60;99.90
10802;DHT22;5453;50.852;7.102;2022-12-17T13:42:57;1.40;99.90
10802;DHT22;5453;50.852;7.102;2022-12-17T13:45:33;1.20;99.90
10802;DHT22;5453;50.852;7.102;2022-12-17T13:48:19;1.00;99.90
10802;DHT22;5453;50.852;7.102;2022-12-17T13:50:54;0.90;99.90
10802;DHT22;5453;50.852;7.102;2022-12-17T13:53:28;0.90;99.90
10802;DHT22;5453;50.852;7.102;2022-12-17T13:56:03;0.80;99.90
10802;DHT22;5453;50.852;7.102;2022-12-17T13:58:35;0.80;99.90
10802;DHT22;5453;50.852;7.102;2022-12-17T14:01:10;0.70;99.90
10802;DHT22;5453;50.852;7.102;2022-12-17T14:03:48;0.70;99.90
10802;DHT22;5453;50.852;7.102;2022-12-17T14:06:23;0.60;99.90
10802;DHT22;5453;50.852;7.102;2022-12-17T14:08:57;0.60;99.90
10802;DHT22;5453;50.852;7.102;2022-12-17T14:11:30;0.50;99.90
10802;DHT22;5453;50.852;7.102;2022-12-17T14:14:29;0.50;99.90
10802;DHT22;5453;50.852;7.102;2022-12-17T14:17:04;0.50;99.90
10802;DHT22;5453;50.852;7.102;2022-12-17T14:19:37;0.40;99.90
10802;DHT22;5453;50.852;7.102;2022-12-17T14:22:15;0.30;99.90
10802;DHT22;5453;50.852;7.102;2022-12-17T14:24:53;0.30;99.90
10802;DHT22;5453;50.852;7.102;2022-12-17T14:27:31;0.20;99.90
10802;DHT22;5453;50.852;7.102;2022-12-17T14:30:20;0.20;99.90
10802;DHT22;5453;50.852;7.102;2022-12-17T14:32:58;0.10;99.90
10802;DHT22;5453;50.852;7.102;2022-12-17T14:35:41;0.20;99.90
10802;DHT22;5453;50.852;7.102;2022-12-17T14:38:19;0.10;99.90
10802;DHT22;5453;50.852;7.102;2022-12-17T14:40:52;0.10;99.90
10802;DHT22;5453;50.852;7.102;2022-12-17T14:43:27;0.10;99.90
10802;DHT22;5453;50.852;7.102;2022-12-17T14:46:00;0.00;99.90
10802;DHT22;5453;50.852;7.102;2022-12-17T14:48:54;-0.10;99.90
10802;DHT22;5453;50.852;7.102;2022-12-17T14:51:35;0.00;99.90
10802;DHT22;5453;50.852;7.102;2022-12-17T14:54:19;-0.10;99.90
10802;DHT22;5453;50.852;7.102;2022-12-17T14:56:59;-0.20;99.90
10802;DHT22;5453;50.852;7.102;2022-12-17T14:59:32;-0.20;99.90
10802;DHT22;5453;50.852;7.102;2022-12-17T15:02:19;-0.20;99.90
10802;DHT22;5453;50.852;7.102;2022-12-17T15:04:59;-0.30;99.90
10802;DHT22;5453;50.852;7.102;2022-12-17T15:07:32;-0.30;99.90
10802;DHT22;5453;50.852;7.102;2022-12-17T15:10:09;-0.30;99.90
10802;DHT22;5453;50.852;7.102;2022-12-17T15:12:42;-0.40;99.90
10802;DHT22;5453;50.852;7.102;2022-12-17T15:15:15;-0.40;99.90
10802;DHT22;5453;50.852;7.102;2022-12-17T15:17:47;-0.40;99.90
10802;DHT22;5453;50.852;7.102;2022-12-17T15:20:20;-0.50;99.90
10802;DHT22;5453;50.852;7.102;2022-12-17T15:22:53;-0.50;99.90
10802;DHT22;5453;50.852;7.102;2022-12-17T15:25:25;-0.60;99.90
10802;DHT22;5453;50.852;7.102;2022-12-17T15:27:57;-0.60;99.90
10802;DHT22;5453;50.852;7.102;2022-12-17T15:30:29;-0.60;99.90
10802;DHT22;5453;50.852;7.102;2022-12-17T15:33:01;-0.70;99.90
10802;DHT22;5453;50.852;7.102;2022-12-17T15:35:35;-0.70;99.90
10802;DHT22;5453;50.852;7.102;2022-12-17T15:38:08;-0.60;99.90
10802;DHT22;5453;50.852;7.102;2022-12-17T15:40:41;-0.20;99.90
10802;DHT22;5453;50.852;7.102;2022-12-17T15:43:13;-0.20;99.90
10802;DHT22;5453;50.852;7.102;2022-12-17T15:45:47;-0.40;99.90
10802;DHT22;5453;50.852;7.102;2022-12-17T15:48:21;-0.50;99.90
10802;DHT22;5453;50.852;7.102;2022-12-17T15:50:55;-0.50;99.90
10802;DHT22;5453;50.852;7.102;2022-12-17T15:53:27;-0.70;99.90
10802;DHT22;5453;50.852;7.102;2022-12-17T15:55:59;-0.70;99.90
10802;DHT22;5453;50.852;7.102;2022-12-17T15:58:31;-0.80;99.90
10802;DHT22;5453;50.852;7.102;2022-12-17T16:01:04;-0.80;99.90
10802;DHT22;5453;50.852;7.102;2022-12-17T16:03:37;-0.90;99.90
10802;DHT22;5453;50.852;7.102;2022-12-17T16:06:10;-0.90;99.90
10802;DHT22;5453;50.852;7.102;2022-12-17T16:08:42;-1.00;99.90
10802;DHT22;5453;50.852;7.102;2022-12-17T16:11:14;-1.00;99.90
10802;DHT22;5453;50.852;7.102;2022-12-17T16:13:46;-1.10;99.90
10802;DHT22;5453;50.852;7.102;2022-12-17T16:16:24;-1.10;99.90
10802;DHT22;5453;50.852;7.102;2022-12-17T16:18:56;-1.10;99.90
10802;DHT22;5453;50.852;7.102;2022-12-17T16:21:29;-1.20;99.90
10802;DHT22;5453;50.852;7.102;2022-12-17T16:24:05;-1.20;99.90
10802;DHT22;5453;50.852;7.102;2022-12-17T16:26:37;-1.20;99.90
10802;DHT22;5453;50.852;7.102;2022-12-17T16:29:09;-1.20;99.90
10802;DHT22;5453;50.852;7.102;2022-12-17T16:31:41;-1.30;99.90
10802;DHT22;5453;50.852;7.102;2022-12-17T16:34:15;-1.30;99.90
10802;DHT22;5453;50.852;7.102;2022-12-17T16:36:49;-1.30;99.90
10802;DHT22;5453;50.852;7.102;2022-12-17T16:39:21;-1.40;99.90
10802;DHT22;5453;50.852;7.102;2022-12-17T16:41:53;-1.40;99.90
10802;DHT22;5453;50.852;7.102;2022-12-17T16:44:26;-1.40;99.90
10802;DHT22;5453;50.852;7.102;2022-12-17T16:46:58;-1.40;99.90
10802;DHT22;5453;50.852;7.102;2022-12-17T16:49:30;-1.40;99.90
10802;DHT22;5453;50.852;7.102;2022-12-17T16:52:04;-1.40;99.90
10802;DHT22;5453;50.852;7.102;2022-12-17T16:54:36;-1.50;99.90
10802;DHT22;5453;50.852;7.102;2022-12-17T16:57:08;-1.50;99.90
10802;DHT22;5453;50.852;7.102;2022-12-17T16:59:40;-1.50;99.90
10802;DHT22;5453;50.852;7.102;2022-12-17T17:02:14;-1.50;99.90
10802;DHT22;5453;50.852;7.102;2022-12-17T17:04:46;-1.60;99.90
10802;DHT22;5453;50.852;7.102;2022-12-17T17:07:20;-1.60;99.90
10802;DHT22;5453;50.852;7.102;2022-12-17T17:09:52;-1.70;99.90
10802;DHT22;5453;50.852;7.102;2022-12-17T17:12:24;-1.70;99.90
10802;DHT22;5453;50.852;7.102;2022-12-17T17:14:56;-1.80;99.90
10802;DHT22;5453;50.852;7.102;2022-12-17T17:17:28;-1.90;99.90
10802;DHT22;5453;50.852;7.102;2022-12-17T17:20:00;-1.90;99.90
10802;DHT22;5453;50.852;7.102;2022-12-17T17:22:34;-1.90;99.90
10802;DHT22;5453;50.852;7.102;2022-12-17T17:25:06;-2.00;99.90
10802;DHT22;5453;50.852;7.102;2022-12-17T17:27:38;-2.00;99.90
10802;DHT22;5453;50.852;7.102;2022-12-17T17:30:11;-2.00;99.90
10802;DHT22;5453;50.852;7.102;2022-12-17T17:32:44;-2.00;99.90
10802;DHT22;5453;50.852;7.102;2022-12-17T17:35:16;-2.00;99.90
10802;DHT22;5453;50.852;7.102;2022-12-17T17:37:50;-2.10;99.90
10802;DHT22;5453;50.852;7.102;2022-12-17T17:40:22;-2.10;99.90
10802;DHT22;5453;50.852;7.102;2022-12-17T17:42:54;-2.20;99.90
10802;DHT22;5453;50.852;7.102;2022-12-17T17:45:26;-2.20;99.90
10802;DHT22;5453;50.852;7.102;2022-12-17T17:47:58;-2.20;99.90
10802;DHT22;5453;50.852;7.102;2022-12-17T17:50:30;-2.20;99.90
10802;DHT22;5453;50.852;7.102;2022-12-17T17:53:03;-2.30;99.90
10802;DHT22;5453;50.852;7.102;2022-12-17T17:55:35;-2.30;99.90
10802;DHT22;5453;50.852;7.102;2022-12-17T17:58:07;-1.70;99.90
10802;DHT22;5453;50.852;7.102;2022-12-17T18:00:40;-1.70;99.90